sensor_id;sensor_type;location;lat;lon;timestamp;temperature;humidity
7028;DHT22;3555;53.248;10.336;2023-06-14T00:00:42;16.30;99.90
7028;DHT22;3555;53.248;10.336;2023-06-14T00:03:10;16.30;99.90
7028;DHT22;3555;53.248;10.336;2023-06-14T00:05:37;16.40;99.90
7028;DHT22;3555;53.248;10.336;2023-06-14T00:08:08;16.40;99.90
7028;DHT22;3555;53.248;10.336;2023-06-14T00:10:36;16.40;99.90
7028;DHT22;3555;53.248;10.336;2023-06-14T00:13:05;16.40;99.90
7028;DHT22;3555;53.248;10.336;2023-06-14T00:15:32;16.30;99.90
7028;DHT22;3555;53.248;10.336;2023-06-14T00:18:00;16.40;99.90
7028;DHT22;3555;53.248;10.336;2023-06-14T00:20:27;16.50;99.90
7028;DHT22;3555;53.248;10.336;2023-06-14T00:22:54;16.40;99.90
7028;DHT22;3555;53.248;10.336;2023-06-14T00:25:22;16.60;99.90
7028;DHT22;3555;53.248;10.336;2023-06-14T00:27:50;16.60;99.90
7028;DHT22;3555;53.248;10.336;2023-06-14T00:30:19;16.70;99.90
7028;DHT22;3555;53.248;10.336;2023-06-14T00:32:46;16.90;99.90
7028;DHT22;3555;53.248;10.336;2023-06-14T00:35:14;17.00;99.90
7028;DHT22;3555;53.248;10.336;2023-06-14T00:37:41;17.10;99.90
7028;DHT22;3555;53.248;10.336;2023-06-14T00:40:08;17.10;99.90
7028;DHT22;3555;53.248;10.336;2023-06-14T00:42:35;17.00;99.90
7028;DHT22;3555;53.248;10.336;2023-06-14T00:45:02;17.10;99.90
7028;DHT22;3555;53.248;10.336;2023-06-14T00:47:30;17.10;99.90
7028;DHT22;3555;53.248;10.336;2023-06-14T00:49:57;17.20;99.90
7028;DHT22;3555;53.248;10.336;2023-06-14T00:52:25;17.10;99.90
7028;DHT22;3555;53.248;10.336;2023-06-14T00:54:51;17.20;99.90
7028;DHT22;3555;53.248;10.336;2023-06-14T00:57:19;17.20;99.90
7028;DHT22;3555;53.248;10.336;2023-06-14T00:59:48;17.20;99.90
7028;DHT22;3555;53.248;10.336;2023-06-14T01:02:16;17.30;99.90
7028;DHT22;3555;53.248;10.336;2023-06-14T01:04:46;17.30;99.90
7028;DHT22;3555;53.248;10.336;2023-06-14T01:07:23;17.30;99.90
7028;DHT22;3555;53.248;10.336;2023-06-14T01:10:03;17.30;99.90
7028;DHT22;3555;53.248;10.336;2023-06-14T01:12:36;17.20;99.90
7028;DHT22;3555;53.248;10.336;2023-06-14T01:15:07;17.30;99.90
7028;DHT22;3555;53.248;10.336;2023-06-14T01:17:35;17.30;99.90
7028;DHT22;3555;53.248;10.336;2023-06-14T01:20:11;17.20;99.90
7028;DHT22;3555;53.248;10.336;2023-06-14T01:22:50;17.20;99.90
7028;DHT22;3555;53.248;10.336;2023-06-14T01:25:17;17.30;99.90
7028;DHT22;3555;53.248;10.336;2023-06-14T01:27:47;17.20;99.90
7028;DHT22;3555;53.248;10.336;2023-06-14T01:30:17;17.00;99.90
7028;DHT22;3555;53.248;10.336;2023-06-14T01:32:46;17.00;99.90
7028;DHT22;3555;53.248;10.336;2023-06-14T01:35:13;16.90;99.90
7028;DHT22;3555;53.248;10.336;2023-06-14T01:37:41;16.90;99.90
7028;DHT22;3555;53.248;10.336;2023-06-14T01:40:12;16.90;99.90
7028;DHT22;3555;53.248;10.336;2023-06-14T01:42:39;16.90;99.90
7028;DHT22;3555;53.248;10.336;2023-06-14T01:45:08;16.90;99.90
7028;DHT22;3555;53.248;10.336;2023-06-14T01:47:36;16.90;99.90
7028;DHT22;3555;53.248;10.336;2023-06-14T01:50:04;16.90;99.90
7028;DHT22;3555;53.248;10.336;2023-06-14T01:52:31;17.00;99.90
7028;DHT22;3555;53.248;10.336;2023-06-14T01:54:58;16.80;99.90
7028;DHT22;3555;53.248;10.336;2023-06-14T01:57:29;16.80;99.90
7028;DHT22;3555;53.248;10.336;2023-06-14T01:59:56;16.70;99.90
7028;DHT22;3555;53.248;10.336;2023-06-14T02:02:23;16.70;99.90
7028;DHT22;3555;53.248;10.336;2023-06-14T02:04:49;16.60;99.90
7028;DHT22;3555;53.248;10.336;2023-06-14T02:07:17;16.60;99.90
7028;DHT22;3555;53.248;10.336;2023-06-14T02:09:44;16.60;99.90
7028;DHT22;3555;53.248;10.336;2023-06-14T02:12:11;16.70;99.90
7028;DHT22;3555;53.248;10.336;2023-06-14T02:14:39;16.60;99.90
7028;DHT22;3555;53.248;10.336;2023-06-14T02:17:06;16.80;99.90
7028;DHT22;3555;53.248;10.336;2023-06-14T02:19:33;16.70;99.90
7028;DHT22;3555;53.248;10.336;2023-06-14T02:22:00;16.80;99.90
7028;DHT22;3555;53.248;10.336;2023-06-14T02:24:27;16.80;99.90
7028;DHT22;3555;53.248;10.336;2023-06-14T02:26:54;16.80;99.90
7028;DHT22;3555;53.248;10.336;2023-06-14T02:29:20;16.80;99.90
7028;DHT22;3555;53.248;10.336;2023-06-14T02:31:49;16.70;99.90
7028;DHT22;3555;53.248;10.336;2023-06-14T02:34:16;16.70;99.90
7028;DHT22;3555;53.248;10.336;2023-06-14T02:36:43;16.60;99.90
7028;DHT22;3555;53.248;10.336;2023-06-14T02:39:11;16.60;99.90
7028;DHT22;3555;53.248;10.336;2023-06-14T02:41:38;16.50;99.90
7028;DHT22;3555;53.248;10.336;2023-06-14T02:44:05;16.40;99.90
7028;DHT22;3555;53.248;10.336;2023-06-14T02:46:32;16.50;99.90
7028;DHT22;3555;53.248;10.336;2023-06-14T02:49:00;16.40;99.90
7028;DHT22;3555;53.248;10.336;2023-06-14T02:51:27;16.40;1.00
7028;DHT22;3555;53.248;10.336;2023-06-14T02:53:54;16.40;1.00
7028;DHT22;3555;53.248;10.336;2023-06-14T02:56:21;16.30;1.00
7028;DHT22;3555;53.248;10.336;2023-06-14T02:58:48;16.50;1.00
7028;DHT22;3555;53.248;10.336;2023-06-14T03:01:16;16.20;1.00
7028;DHT22;3555;53.248;10.336;2023-06-14T03:03:43;16.00;1.00
7028;DHT22;3555;53.248;10.336;2023-06-14T03:06:12;16.00;1.00
7028;DHT22;3555;53.248;10.336;2023-06-14T03:08:39;15.90;1.00
7028;DHT22;3555;53.248;10.336;2023-06-14T03:11:07;15.90;1.00
7028;DHT22;3555;53.248;10.336;2023-06-14T03:13:34;15.80;1.00
7028;DHT22;3555;53.248;10.336;2023-06-14T03:16:01;15.70;1.00
7028;DHT22;3555;53.248;10.336;2023-06-14T03:18:29;15.50;52.30
7028;DHT22;3555;53.248;10.336;2023-06-14T03:21:00;15.40;99.90
7028;DHT22;3555;53.248;10.336;2023-06-14T03:23:29;15.10;99.90
7028;DHT22;3555;53.248;10.336;2023-06-14T03:25:56;15.00;1.00
7028;DHT22;3555;53.248;10.336;2023-06-14T03:28:23;14.90;1.00
7028;DHT22;3555;53.248;10.336;2023-06-14T03:30:51;14.70;1.00
7028;DHT22;3555;53.248;10.336;2023-06-14T03:33:18;14.80;1.00
7028;DHT22;3555;53.248;10.336;2023-06-14T03:35:45;14.70;1.00
7028;DHT22;3555;53.248;10.336;2023-06-14T03:38:12;14.80;1.00
7028;DHT22;3555;53.248;10.336;2023-06-14T03:40:40;14.00;99.90
7028;DHT22;3555;53.248;10.336;2023-06-14T03:43:07;14.80;99.90
7028;DHT22;3555;53.248;10.336;2023-06-14T03:45:34;14.70;1.00
7028;DHT22;3555;53.248;10.336;2023-06-14T03:48:01;15.00;1.00
7028;DHT22;3555;53.248;10.336;2023-06-14T03:50:28;15.10;1.00
7028;DHT22;3555;53.248;10.336;2023-06-14T03:52:55;15.20;1.00
7028;DHT22;3555;53.248;10.336;2023-06-14T03:55:22;15.40;1.00
7028;DHT22;3555;53.248;10.336;2023-06-14T03:57:52;15.50;99.90
7028;DHT22;3555;53.248;10.336;2023-06-14T04:00:19;15.60;99.90
7028;DHT22;3555;53.248;10.336;2023-06-14T04:02:45;15.70;99.90
7028;DHT22;3555;53.248;10.336;2023-06-14T04:05:13;15.70;99.90
7028;DHT22;3555;53.248;10.336;2023-06-14T04:07:42;15.80;99.90
7028;DHT22;3555;53.248;10.336;2023-06-14T04:10:11;15.90;99.90
7028;DHT22;3555;53.248;10.336;2023-06-14T04:12:37;16.00;99.90
7028;DHT22;3555;53.248;10.336;2023-06-14T04:15:07;16.20;6.90
7028;DHT22;3555;53.248;10.336;2023-06-14T04:17:36;16.20;1.00
7028;DHT22;3555;53.248;10.336;2023-06-14T04:20:04;16.40;1.00
7028;DHT22;3555;53.248;10.336;2023-06-14T04:22:34;16.60;1.00
7028;DHT22;3555;53.248;10.336;2023-06-14T04:25:02;16.70;1.00
7028;DHT22;3555;53.248;10.336;2023-06-14T04:27:29;16.90;1.00
7028;DHT22;3555;53.248;10.336;2023-06-14T04:30:01;17.00;1.00
7028;DHT22;3555;53.248;10.336;2023-06-14T04:32:30;17.10;1.00
7028;DHT22;3555;53.248;10.336;2023-06-14T04:34:59;17.20;1.00
7028;DHT22;3555;53.248;10.336;2023-06-14T04:37:27;17.10;1.00
7028;DHT22;3555;53.248;10.336;2023-06-14T04:39:54;17.20;1.00
7028;DHT22;3555;53.248;10.336;2023-06-14T04:42:22;17.20;1.00
7028;DHT22;3555;53.248;10.336;2023-06-14T04:44:51;17.30;1.00
7028;DHT22;3555;53.248;10.336;2023-06-14T04:47:21;17.50;1.00
7028;DHT22;3555;53.248;10.336;2023-06-14T04:49:51;17.60;1.00
7028;DHT22;3555;53.248;10.336;2023-06-14T04:52:19;17.80;1.00
7028;DHT22;3555;53.248;10.336;2023-06-14T04:54:46;17.60;1.00
7028;DHT22;3555;53.248;10.336;2023-06-14T04:57:14;17.80;99.90
7028;DHT22;3555;53.248;10.336;2023-06-14T04:59:42;17.80;1.00
7028;DHT22;3555;53.248;10.336;2023-06-14T05:02:09;18.00;99.90
7028;DHT22;3555;53.248;10.336;2023-06-14T05:04:37;18.20;99.90
7028;DHT22;3555;53.248;10.336;2023-06-14T05:07:07;18.40;99.90
7028;DHT22;3555;53.248;10.336;2023-06-14T05:09:34;18.50;99.90
7028;DHT22;3555;53.248;10.336;2023-06-14T05:12:01;18.60;99.90
7028;DHT22;3555;53.248;10.336;2023-06-14T05:14:28;18.60;99.90
7028;DHT22;3555;53.248;10.336;2023-06-14T05:16:55;18.80;99.90
7028;DHT22;3555;53.248;10.336;2023-06-14T05:19:22;19.00;99.90
7028;DHT22;3555;53.248;10.336;2023-06-14T05:21:49;19.20;99.90
7028;DHT22;3555;53.248;10.336;2023-06-14T05:24:18;19.20;84.90
7028;DHT22;3555;53.248;10.336;2023-06-14T05:26:45;19.20;95.70
7028;DHT22;3555;53.248;10.336;2023-06-14T05:29:12;19.30;99.90
7028;DHT22;3555;53.248;10.336;2023-06-14T05:31:38;19.60;99.90
7028;DHT22;3555;53.248;10.336;2023-06-14T05:34:05;19.80;1.00
7028;DHT22;3555;53.248;10.336;2023-06-14T05:36:32;19.90;1.00
7028;DHT22;3555;53.248;10.336;2023-06-14T05:38:59;20.20;1.00
7028;DHT22;3555;53.248;10.336;2023-06-14T05:41:29;20.20;1.00
7028;DHT22;3555;53.248;10.336;2023-06-14T05:43:57;20.50;1.00
7028;DHT22;3555;53.248;10.336;2023-06-14T05:46:25;20.70;1.00
7028;DHT22;3555;53.248;10.336;2023-06-14T05:48:53;21.00;1.00
7028;DHT22;3555;53.248;10.336;2023-06-14T05:51:19;21.10;1.00
7028;DHT22;3555;53.248;10.336;2023-06-14T05:53:47;21.10;1.00
7028;DHT22;3555;53.248;10.336;2023-06-14T05:56:14;21.20;1.00
7028;DHT22;3555;53.248;10.336;2023-06-14T05:58:42;21.30;1.00
7028;DHT22;3555;53.248;10.336;2023-06-14T06:01:09;21.40;1.00
7028;DHT22;3555;53.248;10.336;2023-06-14T06:03:37;21.50;1.00
7028;DHT22;3555;53.248;10.336;2023-06-14T06:06:03;21.60;1.00
7028;DHT22;3555;53.248;10.336;2023-06-14T06:08:30;21.70;1.00
7028;DHT22;3555;53.248;10.336;2023-06-14T06:10:58;21.80;1.00
7028;DHT22;3555;53.248;10.336;2023-06-14T06:13:25;22.00;1.00
7028;DHT22;3555;53.248;10.336;2023-06-14T06:15:54;22.10;1.00
7028;DHT22;3555;53.248;10.336;2023-06-14T06:18:21;22.20;1.00
7028;DHT22;3555;53.248;10.336;2023-06-14T06:20:48;22.40;1.00
7028;DHT22;3555;53.248;10.336;2023-06-14T06:23:15;22.30;1.00
7028;DHT22;3555;53.248;10.336;2023-06-14T06:25:42;22.50;1.00
7028;DHT22;3555;53.248;10.336;2023-06-14T06:28:09;22.50;1.00
7028;DHT22;3555;53.248;10.336;2023-06-14T06:30:36;22.60;1.00
7028;DHT22;3555;53.248;10.336;2023-06-14T06:33:04;22.70;1.00
7028;DHT22;3555;53.248;10.336;2023-06-14T06:35:31;22.90;1.00
7028;DHT22;3555;53.248;10.336;2023-06-14T06:37:59;22.80;1.00
7028;DHT22;3555;53.248;10.336;2023-06-14T06:40:26;22.80;1.00
7028;DHT22;3555;53.248;10.336;2023-06-14T06:42:53;23.00;1.00
7028;DHT22;3555;53.248;10.336;2023-06-14T06:45:20;23.10;1.00
7028;DHT22;3555;53.248;10.336;2023-06-14T06:47:48;22.80;1.00
7028;DHT22;3555;53.248;10.336;2023-06-14T06:50:18;22.60;1.00
7028;DHT22;3555;53.248;10.336;2023-06-14T06:52:45;22.80;1.00
7028;DHT22;3555;53.248;10.336;2023-06-14T06:55:12;22.90;1.00
7028;DHT22;3555;53.248;10.336;2023-06-14T06:57:39;23.00;1.00
7028;DHT22;3555;53.248;10.336;2023-06-14T07:00:07;23.20;1.00
7028;DHT22;3555;53.248;10.336;2023-06-14T07:02:35;23.40;1.00
7028;DHT22;3555;53.248;10.336;2023-06-14T07:05:03;23.60;1.00
7028;DHT22;3555;53.248;10.336;2023-06-14T07:07:31;23.50;1.00
7028;DHT22;3555;53.248;10.336;2023-06-14T07:09:58;23.60;1.00
7028;DHT22;3555;53.248;10.336;2023-06-14T07:12:25;23.60;1.00
7028;DHT22;3555;53.248;10.336;2023-06-14T07:14:52;23.70;1.00
7028;DHT22;3555;53.248;10.336;2023-06-14T07:17:19;24.00;1.00
7028;DHT22;3555;53.248;10.336;2023-06-14T07:19:46;24.30;1.00
7028;DHT22;3555;53.248;10.336;2023-06-14T07:22:13;24.30;1.00
7028;DHT22;3555;53.248;10.336;2023-06-14T07:24:41;24.60;1.00
7028;DHT22;3555;53.248;10.336;2023-06-14T07:27:08;24.80;1.00
7028;DHT22;3555;53.248;10.336;2023-06-14T07:29:35;24.90;1.00
7028;DHT22;3555;53.248;10.336;2023-06-14T07:32:02;25.00;1.00
7028;DHT22;3555;53.248;10.336;2023-06-14T07:34:29;25.20;1.00
7028;DHT22;3555;53.248;10.336;2023-06-14T07:36:56;25.20;1.00
7028;DHT22;3555;53.248;10.336;2023-06-14T07:39:23;25.50;1.00
7028;DHT22;3555;53.248;10.336;2023-06-14T07:41:51;25.70;1.00
7028;DHT22;3555;53.248;10.336;2023-06-14T07:44:18;25.80;1.00
7028;DHT22;3555;53.248;10.336;2023-06-14T07:46:45;26.10;1.00
7028;DHT22;3555;53.248;10.336;2023-06-14T07:49:14;26.40;1.00
7028;DHT22;3555;53.248;10.336;2023-06-14T07:51:41;26.50;99.90
7028;DHT22;3555;53.248;10.336;2023-06-14T07:54:09;26.30;99.90
7028;DHT22;3555;53.248;10.336;2023-06-14T07:56:36;26.20;99.90
7028;DHT22;3555;53.248;10.336;2023-06-14T07:59:04;26.40;99.90
7028;DHT22;3555;53.248;10.336;2023-06-14T08:01:33;26.60;99.90
7028;DHT22;3555;53.248;10.336;2023-06-14T08:03:59;26.80;99.90
7028;DHT22;3555;53.248;10.336;2023-06-14T08:06:26;26.60;99.90
7028;DHT22;3555;53.248;10.336;2023-06-14T08:08:53;26.50;99.90
7028;DHT22;3555;53.248;10.336;2023-06-14T08:11:20;26.20;99.90
7028;DHT22;3555;53.248;10.336;2023-06-14T08:13:49;25.90;99.90
7028;DHT22;3555;53.248;10.336;2023-06-14T08:16:17;26.00;99.90
7028;DHT22;3555;53.248;10.336;2023-06-14T08:18:44;26.30;99.90
7028;DHT22;3555;53.248;10.336;2023-06-14T08:21:11;26.10;99.90
7028;DHT22;3555;53.248;10.336;2023-06-14T08:23:40;25.80;99.90
7028;DHT22;3555;53.248;10.336;2023-06-14T08:26:08;25.40;99.90
7028;DHT22;3555;53.248;10.336;2023-06-14T08:28:35;25.60;99.90
7028;DHT22;3555;53.248;10.336;2023-06-14T08:31:02;25.50;99.90
7028;DHT22;3555;53.248;10.336;2023-06-14T08:33:30;25.30;99.90
7028;DHT22;3555;53.248;10.336;2023-06-14T08:35:59;25.50;99.90
7028;DHT22;3555;53.248;10.336;2023-06-14T08:38:26;25.80;99.90
7028;DHT22;3555;53.248;10.336;2023-06-14T08:40:57;25.90;99.90
7028;DHT22;3555;53.248;10.336;2023-06-14T08:43:24;26.20;99.90
7028;DHT22;3555;53.248;10.336;2023-06-14T08:45:57;26.40;99.90
7028;DHT22;3555;53.248;10.336;2023-06-14T08:48:26;26.10;99.90
7028;DHT22;3555;53.248;10.336;2023-06-14T08:50:56;26.30;99.90
7028;DHT22;3555;53.248;10.336;2023-06-14T08:53:28;26.00;99.90
7028;DHT22;3555;53.248;10.336;2023-06-14T08:55:57;26.10;99.90
7028;DHT22;3555;53.248;10.336;2023-06-14T08:58:27;26.00;99.90
7028;DHT22;3555;53.248;10.336;2023-06-14T09:00:55;26.10;99.90
7028;DHT22;3555;53.248;10.336;2023-06-14T09:03:23;26.20;99.90
7028;DHT22;3555;53.248;10.336;2023-06-14T09:05:57;25.70;99.90
7028;DHT22;3555;53.248;10.336;2023-06-14T09:08:26;25.40;99.90
7028;DHT22;3555;53.248;10.336;2023-06-14T09:10:56;25.60;99.90
7028;DHT22;3555;53.248;10.336;2023-06-14T09:13:23;25.80;99.90
7028;DHT22;3555;53.248;10.336;2023-06-14T09:15:50;25.30;99.90
7028;DHT22;3555;53.248;10.336;2023-06-14T09:18:20;25.50;99.90
7028;DHT22;3555;53.248;10.336;2023-06-14T09:20:47;25.40;99.90
7028;DHT22;3555;53.248;10.336;2023-06-14T09:23:20;25.30;99.90
7028;DHT22;3555;53.248;10.336;2023-06-14T09:25:48;25.60;99.90
7028;DHT22;3555;53.248;10.336;2023-06-14T09:28:14;25.70;99.90
7028;DHT22;3555;53.248;10.336;2023-06-14T09:30:41;25.60;99.90
7028;DHT22;3555;53.248;10.336;2023-06-14T09:33:08;25.60;99.90
7028;DHT22;3555;53.248;10.336;2023-06-14T09:35:36;25.80;99.90
7028;DHT22;3555;53.248;10.336;2023-06-14T09:38:03;26.00;99.90
7028;DHT22;3555;53.248;10.336;2023-06-14T09:40:34;26.40;99.90
7028;DHT22;3555;53.248;10.336;2023-06-14T09:43:04;26.00;99.90
7028;DHT22;3555;53.248;10.336;2023-06-14T09:45:33;26.30;99.90
7028;DHT22;3555;53.248;10.336;2023-06-14T09:48:00;26.40;99.90
7028;DHT22;3555;53.248;10.336;2023-06-14T09:50:28;26.40;99.90
7028;DHT22;3555;53.248;10.336;2023-06-14T09:52:59;26.00;99.90
7028;DHT22;3555;53.248;10.336;2023-06-14T09:55:30;25.70;99.90
7028;DHT22;3555;53.248;10.336;2023-06-14T09:58:00;25.70;99.90
7028;DHT22;3555;53.248;10.336;2023-06-14T10:00:27;25.60;99.90
7028;DHT22;3555;53.248;10.336;2023-06-14T10:03:05;25.50;99.90
7028;DHT22;3555;53.248;10.336;2023-06-14T10:05:35;25.90;99.90
7028;DHT22;3555;53.248;10.336;2023-06-14T10:08:05;25.90;99.90
7028;DHT22;3555;53.248;10.336;2023-06-14T10:10:34;25.70;99.90
7028;DHT22;3555;53.248;10.336;2023-06-14T10:13:02;25.50;99.90
7028;DHT22;3555;53.248;10.336;2023-06-14T10:15:32;25.30;99.90
7028;DHT22;3555;53.248;10.336;2023-06-14T10:18:06;25.20;99.90
7028;DHT22;3555;53.248;10.336;2023-06-14T10:20:39;25.10;99.90
7028;DHT22;3555;53.248;10.336;2023-06-14T10:23:12;25.20;99.90
7028;DHT22;3555;53.248;10.336;2023-06-14T10:25:40;25.40;99.90
7028;DHT22;3555;53.248;10.336;2023-06-14T10:28:17;25.70;99.90
7028;DHT22;3555;53.248;10.336;2023-06-14T10:31:07;26.10;99.90
7028;DHT22;3555;53.248;10.336;2023-06-14T10:33:35;25.80;99.90
7028;DHT22;3555;53.248;10.336;2023-06-14T10:36:27;25.50;99.90
7028;DHT22;3555;53.248;10.336;2023-06-14T10:39:01;25.50;99.90
7028;DHT22;3555;53.248;10.336;2023-06-14T10:41:29;25.90;99.90
7028;DHT22;3555;53.248;10.336;2023-06-14T10:50:04;25.70;99.90
7028;DHT22;3555;53.248;10.336;2023-06-14T10:52:34;25.30;99.90
7028;DHT22;3555;53.248;10.336;2023-06-14T10:55:08;25.40;99.90
7028;DHT22;3555;53.248;10.336;2023-06-14T10:57:38;25.70;99.90
7028;DHT22;3555;53.248;10.336;2023-06-14T11:00:07;25.90;99.90
7028;DHT22;3555;53.248;10.336;2023-06-14T11:05:51;25.80;99.90
7028;DHT22;3555;53.248;10.336;2023-06-14T11:11:32;26.00;99.90
7028;DHT22;3555;53.248;10.336;2023-06-14T11:14:00;25.80;99.90
7028;DHT22;3555;53.248;10.336;2023-06-14T11:16:27;25.70;99.90
7028;DHT22;3555;53.248;10.336;2023-06-14T11:18:54;25.50;99.90
7028;DHT22;3555;53.248;10.336;2023-06-14T11:21:24;25.60;99.90
7028;DHT22;3555;53.248;10.336;2023-06-14T11:23:56;25.80;99.90
7028;DHT22;3555;53.248;10.336;2023-06-14T11:26:27;25.80;99.90
7028;DHT22;3555;53.248;10.336;2023-06-14T11:28:58;25.60;99.90
7028;DHT22;3555;53.248;10.336;2023-06-14T11:31:26;25.40;99.90
7028;DHT22;3555;53.248;10.336;2023-06-14T11:33:54;24.80;99.90
7028;DHT22;3555;53.248;10.336;2023-06-14T11:36:29;24.60;99.90
7028;DHT22;3555;53.248;10.336;2023-06-14T11:38:59;25.00;99.90
7028;DHT22;3555;53.248;10.336;2023-06-14T11:41:32;25.20;99.90
7028;DHT22;3555;53.248;10.336;2023-06-14T11:44:00;25.30;99.90
7028;DHT22;3555;53.248;10.336;2023-06-14T11:46:28;25.30;99.90
7028;DHT22;3555;53.248;10.336;2023-06-14T11:48:55;25.50;99.90
7028;DHT22;3555;53.248;10.336;2023-06-14T11:51:23;25.50;99.90
7028;DHT22;3555;53.248;10.336;2023-06-14T11:53:50;25.20;99.90
7028;DHT22;3555;53.248;10.336;2023-06-14T11:56:18;25.10;99.90
7028;DHT22;3555;53.248;10.336;2023-06-14T11:58:45;25.30;99.90
7028;DHT22;3555;53.248;10.336;2023-06-14T12:01:16;25.40;99.90
7028;DHT22;3555;53.248;10.336;2023-06-14T12:03:47;25.70;99.90
7028;DHT22;3555;53.248;10.336;2023-06-14T12:06:15;25.30;99.90
7028;DHT22;3555;53.248;10.336;2023-06-14T12:08:44;25.20;99.90
7028;DHT22;3555;53.248;10.336;2023-06-14T12:11:15;24.60;99.90
7028;DHT22;3555;53.248;10.336;2023-06-14T12:13:43;24.50;99.90
7028;DHT22;3555;53.248;10.336;2023-06-14T12:16:15;24.30;99.90
7028;DHT22;3555;53.248;10.336;2023-06-14T12:18:42;24.30;99.90
7028;DHT22;3555;53.248;10.336;2023-06-14T12:21:09;24.30;99.90
7028;DHT22;3555;53.248;10.336;2023-06-14T12:23:45;24.60;99.90
7028;DHT22;3555;53.248;10.336;2023-06-14T12:26:15;24.60;99.90
7028;DHT22;3555;53.248;10.336;2023-06-14T12:28:44;24.40;99.90
7028;DHT22;3555;53.248;10.336;2023-06-14T12:31:12;24.70;99.90
7028;DHT22;3555;53.248;10.336;2023-06-14T12:33:39;25.00;99.90
7028;DHT22;3555;53.248;10.336;2023-06-14T12:36:07;25.30;99.90
7028;DHT22;3555;53.248;10.336;2023-06-14T12:38:34;25.40;99.90
7028;DHT22;3555;53.248;10.336;2023-06-14T12:41:03;25.50;99.90
7028;DHT22;3555;53.248;10.336;2023-06-14T12:43:30;25.60;99.90
7028;DHT22;3555;53.248;10.336;2023-06-14T12:45:57;25.70;99.90
7028;DHT22;3555;53.248;10.336;2023-06-14T12:48:23;25.80;99.90
7028;DHT22;3555;53.248;10.336;2023-06-14T12:50:52;25.90;99.90
7028;DHT22;3555;53.248;10.336;2023-06-14T12:53:19;25.90;99.90
7028;DHT22;3555;53.248;10.336;2023-06-14T12:55:46;26.00;99.90
7028;DHT22;3555;53.248;10.336;2023-06-14T12:58:14;26.10;99.90
7028;DHT22;3555;53.248;10.336;2023-06-14T13:00:42;26.30;99.90
7028;DHT22;3555;53.248;10.336;2023-06-14T13:03:10;26.40;99.90
7028;DHT22;3555;53.248;10.336;2023-06-14T13:05:36;26.10;99.90
7028;DHT22;3555;53.248;10.336;2023-06-14T13:08:06;25.80;99.90
7028;DHT22;3555;53.248;10.336;2023-06-14T13:10:34;25.70;99.90
7028;DHT22;3555;53.248;10.336;2023-06-14T13:13:01;25.80;99.90
7028;DHT22;3555;53.248;10.336;2023-06-14T13:15:29;25.50;99.90
7028;DHT22;3555;53.248;10.336;2023-06-14T13:17:56;25.80;99.90
7028;DHT22;3555;53.248;10.336;2023-06-14T13:20:23;25.80;99.90
7028;DHT22;3555;53.248;10.336;2023-06-14T13:22:50;25.80;99.90
7028;DHT22;3555;53.248;10.336;2023-06-14T13:25:17;25.80;99.90
7028;DHT22;3555;53.248;10.336;2023-06-14T13:27:44;25.90;99.90
7028;DHT22;3555;53.248;10.336;2023-06-14T13:30:12;25.90;99.90
7028;DHT22;3555;53.248;10.336;2023-06-14T13:32:40;26.00;99.90
7028;DHT22;3555;53.248;10.336;2023-06-14T13:35:07;26.10;99.90
7028;DHT22;3555;53.248;10.336;2023-06-14T13:37:34;26.10;99.90
7028;DHT22;3555;53.248;10.336;2023-06-14T13:40:01;26.20;99.90
7028;DHT22;3555;53.248;10.336;2023-06-14T13:42:28;26.40;99.90
7028;DHT22;3555;53.248;10.336;2023-06-14T13:44:57;26.40;99.90
7028;DHT22;3555;53.248;10.336;2023-06-14T13:47:24;26.20;99.90
7028;DHT22;3555;53.248;10.336;2023-06-14T13:49:52;26.20;99.90
7028;DHT22;3555;53.248;10.336;2023-06-14T13:52:19;25.90;99.90
7028;DHT22;3555;53.248;10.336;2023-06-14T13:54:46;26.00;99.90
7028;DHT22;3555;53.248;10.336;2023-06-14T13:57:13;25.90;99.90
7028;DHT22;3555;53.248;10.336;2023-06-14T13:59:40;26.10;99.90
7028;DHT22;3555;53.248;10.336;2023-06-14T14:02:07;26.40;99.90
7028;DHT22;3555;53.248;10.336;2023-06-14T14:04:34;26.60;99.90
7028;DHT22;3555;53.248;10.336;2023-06-14T14:07:03;26.50;99.90
7028;DHT22;3555;53.248;10.336;2023-06-14T14:09:31;26.50;99.90
7028;DHT22;3555;53.248;10.336;2023-06-14T14:11:58;26.70;99.90
7028;DHT22;3555;53.248;10.336;2023-06-14T14:14:26;26.80;99.90
7028;DHT22;3555;53.248;10.336;2023-06-14T14:16:53;27.00;99.90
7028;DHT22;3555;53.248;10.336;2023-06-14T14:19:20;27.10;99.90
7028;DHT22;3555;53.248;10.336;2023-06-14T14:21:47;26.70;99.90
7028;DHT22;3555;53.248;10.336;2023-06-14T14:24:15;26.60;99.90
7028;DHT22;3555;53.248;10.336;2023-06-14T14:26:42;26.30;99.90
7028;DHT22;3555;53.248;10.336;2023-06-14T14:29:09;25.80;99.90
7028;DHT22;3555;53.248;10.336;2023-06-14T14:31:37;25.80;99.90
7028;DHT22;3555;53.248;10.336;2023-06-14T14:34:04;25.60;99.90
7028;DHT22;3555;53.248;10.336;2023-06-14T14:36:31;25.50;99.90
7028;DHT22;3555;53.248;10.336;2023-06-14T14:38:59;25.60;99.90
7028;DHT22;3555;53.248;10.336;2023-06-14T14:41:27;25.90;99.90
7028;DHT22;3555;53.248;10.336;2023-06-14T14:43:54;26.20;99.90
7028;DHT22;3555;53.248;10.336;2023-06-14T14:46:21;26.10;99.90
7028;DHT22;3555;53.248;10.336;2023-06-14T14:48:48;26.20;99.90
7028;DHT22;3555;53.248;10.336;2023-06-14T14:51:16;25.90;99.90
7028;DHT22;3555;53.248;10.336;2023-06-14T14:53:42;25.90;99.90
7028;DHT22;3555;53.248;10.336;2023-06-14T14:56:09;25.70;99.90
7028;DHT22;3555;53.248;10.336;2023-06-14T14:58:38;25.80;99.90
7028;DHT22;3555;53.248;10.336;2023-06-14T15:01:05;25.90;99.90
7028;DHT22;3555;53.248;10.336;2023-06-14T15:03:32;26.00;99.90
7028;DHT22;3555;53.248;10.336;2023-06-14T15:05:59;26.00;99.90
7028;DHT22;3555;53.248;10.336;2023-06-14T15:08:26;26.10;99.90
7028;DHT22;3555;53.248;10.336;2023-06-14T15:10:53;26.30;99.90
7028;DHT22;3555;53.248;10.336;2023-06-14T15:13:20;26.20;99.90
7028;DHT22;3555;53.248;10.336;2023-06-14T15:15:49;26.30;99.90
7028;DHT22;3555;53.248;10.336;2023-06-14T15:18:16;26.30;99.90
7028;DHT22;3555;53.248;10.336;2023-06-14T15:20:46;26.40;99.90
7028;DHT22;3555;53.248;10.336;2023-06-14T15:23:12;26.10;99.90
7028;DHT22;3555;53.248;10.336;2023-06-14T15:25:45;26.00;99.90
7028;DHT22;3555;53.248;10.336;2023-06-14T15:28:12;25.60;99.90
7028;DHT22;3555;53.248;10.336;2023-06-14T15:30:39;25.50;99.90
7028;DHT22;3555;53.248;10.336;2023-06-14T15:33:08;25.60;99.90
7028;DHT22;3555;53.248;10.336;2023-06-14T15:35:35;25.40;99.90
7028;DHT22;3555;53.248;10.336;2023-06-14T15:38:02;25.50;99.90
7028;DHT22;3555;53.248;10.336;2023-06-14T15:40:29;25.60;99.90
7028;DHT22;3555;53.248;10.336;2023-06-14T15:42:55;25.40;99.90
7028;DHT22;3555;53.248;10.336;2023-06-14T15:45:22;25.30;99.90
7028;DHT22;3555;53.248;10.336;2023-06-14T15:47:49;25.40;99.90
7028;DHT22;3555;53.248;10.336;2023-06-14T15:50:17;25.30;99.90
7028;DHT22;3555;53.248;10.336;2023-06-14T15:52:45;25.30;99.90
7028;DHT22;3555;53.248;10.336;2023-06-14T15:55:12;25.40;99.90
7028;DHT22;3555;53.248;10.336;2023-06-14T15:57:39;25.20;99.90
7028;DHT22;3555;53.248;10.336;2023-06-14T16:00:07;25.40;99.90
7028;DHT22;3555;53.248;10.336;2023-06-14T16:02:35;25.10;99.90
7028;DHT22;3555;53.248;10.336;2023-06-14T16:05:02;25.10;99.90
7028;DHT22;3555;53.248;10.336;2023-06-14T16:07:30;25.20;99.90